CFG3VT EDDM-EDDF
Flight info
| Callsign | CFG3VT |
|---|---|
| Flight time | 0h 36m |
| Altitude | 22000 |
| Route | GIVMI1N GIVMI Y101 ERNAS T161 DEBHI DEBHI1B |
| Aircraft | A320/M-SDE3FGHIRWY/LB1 |
Departure
| Time | 2026-04-16 10:24 |
|---|---|
| Airport | Munich Airport (EDDM) |
Arrival
| Time | 2026-04-16 11:01 |
|---|---|
| Airport | Frankfurt Main Airport (EDDF) |
| Time | Latitude | Longitude | Altitude | Speed | Heading |
|---|---|---|---|---|---|
| 2026-04-16 09:46 | 48.35142 | 11.77709 | 1473 ft | 0 kts | 263° |
| 2026-04-16 10:11 | 48.35142 | 11.77710 | 1477 ft | 1 kts | 263° |
| 2026-04-16 10:11 | 48.35145 | 11.77746 | 1477 ft | 4 kts | 263° |
| 2026-04-16 10:11 | 48.35147 | 11.77785 | 1485 ft | 4 kts | 280° |
| 2026-04-16 10:12 | 48.35137 | 11.77816 | 1471 ft | 4 kts | 336° |
| 2026-04-16 10:12 | 48.35117 | 11.77823 | 1478 ft | 4 kts | 353° |
| 2026-04-16 10:12 | 48.35110 | 11.77824 | 1485 ft | 0 kts | 353° |
| 2026-04-16 10:15 | 48.35114 | 11.77823 | 1468 ft | 2 kts | 353° |
| 2026-04-16 10:15 | 48.35141 | 11.77819 | 1475 ft | 6 kts | 353° |
| 2026-04-16 10:15 | 48.35197 | 11.77809 | 1475 ft | 10 kts | 353° |
| 2026-04-16 10:16 | 48.35277 | 11.77795 | 1485 ft | 12 kts | 353° |
| 2026-04-16 10:16 | 48.35369 | 11.77778 | 1483 ft | 14 kts | 353° |
| 2026-04-16 10:16 | 48.35475 | 11.77759 | 1483 ft | 16 kts | 353° |
| 2026-04-16 10:16 | 48.35594 | 11.77736 | 1481 ft | 18 kts | 353° |
| 2026-04-16 10:17 | 48.35680 | 11.77723 | 1481 ft | 19 kts | 355° |
| 2026-04-16 10:17 | 48.35817 | 11.77700 | 1478 ft | 20 kts | 352° |
| 2026-04-16 10:17 | 48.35952 | 11.77676 | 1485 ft | 16 kts | 354° |
| 2026-04-16 10:17 | 48.36060 | 11.77674 | 1480 ft | 13 kts | 31° |
| 2026-04-16 10:18 | 48.36085 | 11.77795 | 1481 ft | 12 kts | 83° |
| 2026-04-16 10:18 | 48.36093 | 11.77908 | 1479 ft | 10 kts | 83° |
| 2026-04-16 10:18 | 48.36104 | 11.78042 | 1479 ft | 17 kts | 83° |
| 2026-04-16 10:18 | 48.36120 | 11.78252 | 1485 ft | 24 kts | 83° |
| 2026-04-16 10:19 | 48.36142 | 11.78530 | 1483 ft | 28 kts | 83° |
| 2026-04-16 10:19 | 48.36165 | 11.78831 | 1473 ft | 29 kts | 83° |
| 2026-04-16 10:19 | 48.36185 | 11.79096 | 1485 ft | 24 kts | 83° |
| 2026-04-16 10:19 | 48.36198 | 11.79274 | 1485 ft | 15 kts | 83° |
| 2026-04-16 10:20 | 48.36210 | 11.79424 | 1476 ft | 14 kts | 83° |
| 2026-04-16 10:20 | 48.36220 | 11.79557 | 1485 ft | 12 kts | 83° |
| 2026-04-16 10:20 | 48.36229 | 11.79673 | 1485 ft | 10 kts | 83° |
| 2026-04-16 10:20 | 48.36238 | 11.79774 | 1477 ft | 9 kts | 83° |
| 2026-04-16 10:21 | 48.36244 | 11.79860 | 1485 ft | 8 kts | 84° |
| 2026-04-16 10:21 | 48.36250 | 11.79935 | 1479 ft | 8 kts | 84° |
| 2026-04-16 10:21 | 48.36258 | 11.80045 | 1485 ft | 13 kts | 84° |
| 2026-04-16 10:21 | 48.36269 | 11.80187 | 1485 ft | 13 kts | 83° |
| 2026-04-16 10:22 | 48.36279 | 11.80317 | 1485 ft | 13 kts | 83° |
| 2026-04-16 10:22 | 48.36291 | 11.80472 | 1482 ft | 13 kts | 83° |
| 2026-04-16 10:22 | 48.36353 | 11.80510 | 1485 ft | 10 kts | 327° |
| 2026-04-16 10:22 | 48.36386 | 11.80415 | 1478 ft | 11 kts | 293° |
| 2026-04-16 10:23 | 48.36419 | 11.80298 | 1482 ft | 13 kts | 293° |
| 2026-04-16 10:23 | 48.36458 | 11.80163 | 1480 ft | 15 kts | 293° |
| 2026-04-16 10:23 | 48.36509 | 11.80051 | 1484 ft | 7 kts | 328° |
| 2026-04-16 10:23 | 48.36526 | 11.80000 | 1476 ft | 5 kts | 263° |
| 2026-04-16 10:24 | 48.36516 | 11.79879 | 1485 ft | 30 kts | 263° |
| 2026-04-16 10:24 | 48.36462 | 11.79163 | 1485 ft | 104 kts | 263° |
| 2026-04-16 10:24 | 48.36354 | 11.77778 | 1525 ft | 156 kts | 263° |
| 2026-04-16 10:24 | 48.36223 | 11.76142 | 2148 ft | 160 kts | 264° |
| 2026-04-16 10:25 | 48.36078 | 11.74464 | 2903 ft | 163 kts | 264° |
| 2026-04-16 10:25 | 48.35944 | 11.72758 | 3566 ft | 170 kts | 264° |
| 2026-04-16 10:25 | 48.35802 | 11.70875 | 3875 ft | 193 kts | 265° |
| 2026-04-16 10:25 | 48.35700 | 11.68746 | 4166 ft | 215 kts | 277° |
| 2026-04-16 10:26 | 48.36228 | 11.66575 | 4628 ft | 234 kts | 301° |
| 2026-04-16 10:26 | 48.37124 | 11.64399 | 5128 ft | 252 kts | 301° |
| 2026-04-16 10:26 | 48.38059 | 11.62136 | 5928 ft | 257 kts | 302° |
| 2026-04-16 10:26 | 48.39150 | 11.59989 | 6775 ft | 263 kts | 318° |
| 2026-04-16 10:27 | 48.40730 | 11.58555 | 7507 ft | 269 kts | 334° |
| 2026-04-16 10:27 | 48.42436 | 11.57350 | 8327 ft | 273 kts | 334° |
| 2026-04-16 10:27 | 48.44169 | 11.56142 | 9173 ft | 276 kts | 334° |
| 2026-04-16 10:27 | 48.45925 | 11.54918 | 9988 ft | 280 kts | 334° |
| 2026-04-16 10:28 | 48.47708 | 11.53678 | 10638 ft | 289 kts | 334° |
| 2026-04-16 10:28 | 48.49602 | 11.52350 | 10867 ft | 312 kts | 333° |
| 2026-04-16 10:28 | 48.51621 | 11.50856 | 11132 ft | 332 kts | 332° |
| 2026-04-16 10:28 | 48.53710 | 11.49250 | 11701 ft | 340 kts | 332° |
| 2026-04-16 10:29 | 48.55825 | 11.47597 | 12405 ft | 344 kts | 331° |
| 2026-04-16 10:29 | 48.57962 | 11.45923 | 13128 ft | 347 kts | 331° |
| 2026-04-16 10:29 | 48.60118 | 11.44235 | 13855 ft | 351 kts | 331° |
| 2026-04-16 10:29 | 48.62294 | 11.42542 | 14510 ft | 354 kts | 331° |
| 2026-04-16 10:30 | 48.64494 | 11.40833 | 15138 ft | 357 kts | 331° |
| 2026-04-16 10:30 | 48.66709 | 11.39111 | 15763 ft | 359 kts | 331° |
| 2026-04-16 10:30 | 48.68940 | 11.37378 | 16382 ft | 362 kts | 330° |
| 2026-04-16 10:30 | 48.71126 | 11.35457 | 16965 ft | 365 kts | 324° |
| 2026-04-16 10:31 | 48.73246 | 11.33318 | 17588 ft | 368 kts | 324° |
| 2026-04-16 10:31 | 48.75353 | 11.31192 | 18219 ft | 370 kts | 324° |
| 2026-04-16 10:31 | 48.77503 | 11.29019 | 18794 ft | 373 kts | 324° |
| 2026-04-16 10:31 | 48.79671 | 11.26822 | 19339 ft | 375 kts | 324° |
| 2026-04-16 10:32 | 48.81847 | 11.24610 | 19890 ft | 378 kts | 324° |
| 2026-04-16 10:32 | 48.84029 | 11.22367 | 20445 ft | 380 kts | 321° |
| 2026-04-16 10:32 | 48.86038 | 11.19764 | 21028 ft | 381 kts | 315° |
| 2026-04-16 10:32 | 48.87993 | 11.17037 | 21584 ft | 383 kts | 316° |
| 2026-04-16 10:33 | 48.89964 | 11.14294 | 22075 ft | 386 kts | 316° |
| 2026-04-16 10:33 | 48.91945 | 11.11533 | 22241 ft | 387 kts | 315° |
| 2026-04-16 10:33 | 48.93940 | 11.08747 | 22279 ft | 391 kts | 316° |
| 2026-04-16 10:33 | 48.95974 | 11.05907 | 22278 ft | 392 kts | 316° |
| 2026-04-16 10:34 | 48.97982 | 11.03103 | 22277 ft | 392 kts | 316° |
| 2026-04-16 10:34 | 48.99962 | 11.00333 | 22282 ft | 392 kts | 315° |
| 2026-04-16 10:34 | 49.01993 | 10.97485 | 22271 ft | 391 kts | 315° |
| 2026-04-16 10:34 | 49.03970 | 10.94707 | 22284 ft | 395 kts | 315° |
| 2026-04-16 10:35 | 49.06025 | 10.91808 | 22288 ft | 409 kts | 315° |
| 2026-04-16 10:35 | 49.08146 | 10.88815 | 22287 ft | 421 kts | 315° |
| 2026-04-16 10:35 | 49.10323 | 10.85741 | 22281 ft | 432 kts | 315° |
| 2026-04-16 10:35 | 49.12548 | 10.82596 | 22291 ft | 439 kts | 315° |
| 2026-04-16 10:36 | 49.14796 | 10.79414 | 22294 ft | 442 kts | 315° |
| 2026-04-16 10:36 | 49.17052 | 10.76217 | 22292 ft | 442 kts | 315° |
| 2026-04-16 10:36 | 49.19307 | 10.73020 | 22294 ft | 442 kts | 315° |
| 2026-04-16 10:36 | 49.21532 | 10.69772 | 22287 ft | 442 kts | 314° |
| 2026-04-16 10:37 | 49.23701 | 10.66439 | 22266 ft | 442 kts | 313° |
| 2026-04-16 10:37 | 49.25827 | 10.63051 | 22284 ft | 441 kts | 311° |
| 2026-04-16 10:37 | 49.27937 | 10.59636 | 22262 ft | 441 kts | 311° |
| 2026-04-16 10:37 | 49.30044 | 10.56224 | 22267 ft | 441 kts | 311° |
| 2026-04-16 10:38 | 49.32159 | 10.52816 | 22268 ft | 441 kts | 312° |
| 2026-04-16 10:38 | 49.34284 | 10.49423 | 22268 ft | 441 kts | 312° |
| 2026-04-16 10:38 | 49.36338 | 10.45940 | 22250 ft | 440 kts | 307° |
| 2026-04-16 10:38 | 49.38130 | 10.42139 | 22249 ft | 439 kts | 304° |
| 2026-04-16 10:39 | 49.39889 | 10.38306 | 22248 ft | 439 kts | 304° |
| 2026-04-16 10:39 | 49.41644 | 10.34467 | 22247 ft | 439 kts | 304° |
| 2026-04-16 10:39 | 49.43396 | 10.30620 | 22240 ft | 439 kts | 303° |
| 2026-04-16 10:39 | 49.45144 | 10.26773 | 22241 ft | 439 kts | 303° |
| 2026-04-16 10:40 | 49.46894 | 10.22920 | 22240 ft | 439 kts | 303° |
| 2026-04-16 10:40 | 49.48643 | 10.19068 | 22243 ft | 439 kts | 303° |
| 2026-04-16 10:40 | 49.50389 | 10.15216 | 22244 ft | 439 kts | 303° |
| 2026-04-16 10:40 | 49.52135 | 10.11358 | 22244 ft | 439 kts | 303° |
| 2026-04-16 10:41 | 49.53314 | 10.08750 | 22263 ft | 439 kts | 303° |
| 2026-04-16 10:41 | 49.55617 | 10.03638 | 22260 ft | 439 kts | 303° |
| 2026-04-16 10:41 | 49.57356 | 9.99775 | 22258 ft | 438 kts | 303° |
| 2026-04-16 10:41 | 49.59083 | 9.95937 | 22255 ft | 438 kts | 303° |
| 2026-04-16 10:42 | 49.60827 | 9.92059 | 22254 ft | 438 kts | 303° |
| 2026-04-16 10:42 | 49.62560 | 9.88196 | 22252 ft | 438 kts | 303° |
| 2026-04-16 10:42 | 49.64290 | 9.84334 | 22250 ft | 438 kts | 303° |
| 2026-04-16 10:42 | 49.66021 | 9.80463 | 22252 ft | 438 kts | 303° |
| 2026-04-16 10:43 | 49.67745 | 9.76605 | 22242 ft | 434 kts | 303° |
| 2026-04-16 10:43 | 49.69438 | 9.72814 | 22149 ft | 413 kts | 303° |
| 2026-04-16 10:43 | 49.71031 | 9.69240 | 22012 ft | 396 kts | 303° |
| 2026-04-16 10:43 | 49.72558 | 9.65805 | 21883 ft | 380 kts | 302° |
| 2026-04-16 10:44 | 49.74025 | 9.62498 | 21748 ft | 366 kts | 302° |
| 2026-04-16 10:44 | 49.75442 | 9.59301 | 21618 ft | 354 kts | 302° |
| 2026-04-16 10:44 | 49.76806 | 9.56223 | 21485 ft | 339 kts | 302° |
| 2026-04-16 10:44 | 49.78100 | 9.53303 | 21200 ft | 321 kts | 302° |
| 2026-04-16 10:45 | 49.79344 | 9.50495 | 20614 ft | 313 kts | 302° |
| 2026-04-16 10:45 | 49.80566 | 9.47729 | 19947 ft | 310 kts | 302° |
| 2026-04-16 10:45 | 49.81773 | 9.44984 | 19290 ft | 307 kts | 302° |
| 2026-04-16 10:45 | 49.82972 | 9.42253 | 18642 ft | 306 kts | 302° |
| 2026-04-16 10:46 | 49.84164 | 9.39537 | 17911 ft | 304 kts | 302° |
| 2026-04-16 10:46 | 49.85344 | 9.36838 | 17230 ft | 301 kts | 300° |
| 2026-04-16 10:46 | 49.86311 | 9.33996 | 16577 ft | 296 kts | 291° |
| 2026-04-16 10:46 | 49.86970 | 9.30999 | 15938 ft | 293 kts | 285° |
| 2026-04-16 10:47 | 49.87544 | 9.27975 | 15299 ft | 291 kts | 286° |
| 2026-04-16 10:47 | 49.88116 | 9.24977 | 14681 ft | 289 kts | 286° |
| 2026-04-16 10:47 | 49.88677 | 9.22045 | 14106 ft | 286 kts | 286° |
| 2026-04-16 10:47 | 49.89242 | 9.19097 | 13442 ft | 284 kts | 286° |
| 2026-04-16 10:48 | 49.89801 | 9.16169 | 12788 ft | 282 kts | 286° |
| 2026-04-16 10:48 | 49.90355 | 9.13257 | 12127 ft | 280 kts | 287° |
| 2026-04-16 10:48 | 49.91227 | 9.10531 | 11306 ft | 284 kts | 308° |
| 2026-04-16 10:48 | 49.92701 | 9.08559 | 10796 ft | 279 kts | 330° |
| 2026-04-16 10:49 | 49.94446 | 9.07664 | 10261 ft | 280 kts | 352° |
| 2026-04-16 10:49 | 49.96452 | 9.07505 | 9571 ft | 280 kts | 356° |
| 2026-04-16 10:49 | 49.98391 | 9.07587 | 8927 ft | 279 kts | 4° |
| 2026-04-16 10:49 | 50.00302 | 9.08114 | 8296 ft | 279 kts | 12° |
| 2026-04-16 10:50 | 50.02146 | 9.09059 | 7766 ft | 280 kts | 20° |
| 2026-04-16 10:50 | 50.03893 | 9.10381 | 7284 ft | 279 kts | 28° |
| 2026-04-16 10:50 | 50.05506 | 9.12074 | 6922 ft | 279 kts | 37° |
| 2026-04-16 10:50 | 50.06949 | 9.14099 | 6805 ft | 281 kts | 45° |
| 2026-04-16 10:51 | 50.08204 | 9.16428 | 6550 ft | 280 kts | 53° |
| 2026-04-16 10:51 | 50.09221 | 9.19000 | 6175 ft | 278 kts | 62° |
| 2026-04-16 10:51 | 50.10145 | 9.21593 | 5976 ft | 267 kts | 49° |
| 2026-04-16 10:51 | 50.11550 | 9.23402 | 5846 ft | 262 kts | 24° |
| 2026-04-16 10:52 | 50.13278 | 9.24200 | 5716 ft | 259 kts | 3° |
| 2026-04-16 10:52 | 50.15046 | 9.23944 | 5580 ft | 255 kts | 341° |
| 2026-04-16 10:52 | 50.16608 | 9.22698 | 5457 ft | 251 kts | 319° |
| 2026-04-16 10:52 | 50.17749 | 9.20678 | 5328 ft | 248 kts | 298° |
| 2026-04-16 10:53 | 50.18330 | 9.18174 | 5204 ft | 248 kts | 277° |
| 2026-04-16 10:53 | 50.18286 | 9.15497 | 5078 ft | 248 kts | 256° |
| 2026-04-16 10:53 | 50.17700 | 9.12968 | 4950 ft | 249 kts | 247° |
| 2026-04-16 10:53 | 50.17033 | 9.10476 | 4823 ft | 249 kts | 247° |
| 2026-04-16 10:54 | 50.16368 | 9.07990 | 4689 ft | 248 kts | 247° |
| 2026-04-16 10:54 | 50.15711 | 9.05532 | 4562 ft | 248 kts | 247° |
| 2026-04-16 10:54 | 50.15050 | 9.03053 | 4422 ft | 248 kts | 247° |
| 2026-04-16 10:54 | 50.14390 | 9.00579 | 4302 ft | 245 kts | 247° |
| 2026-04-16 10:55 | 50.13694 | 8.98235 | 4168 ft | 232 kts | 238° |
| 2026-04-16 10:55 | 50.12914 | 8.96105 | 4062 ft | 223 kts | 245° |
| 2026-04-16 10:55 | 50.12326 | 8.93884 | 4004 ft | 221 kts | 249° |
| 2026-04-16 10:55 | 50.11795 | 8.91633 | 4008 ft | 222 kts | 250° |
| 2026-04-16 10:56 | 50.11269 | 8.89386 | 4005 ft | 220 kts | 250° |
| 2026-04-16 10:56 | 50.10743 | 8.87143 | 4006 ft | 221 kts | 250° |
| 2026-04-16 10:56 | 50.10214 | 8.84892 | 3858 ft | 220 kts | 250° |
| 2026-04-16 10:56 | 50.09692 | 8.82672 | 3603 ft | 217 kts | 250° |
| 2026-04-16 10:57 | 50.09167 | 8.80445 | 3319 ft | 217 kts | 250° |
| 2026-04-16 10:57 | 50.08659 | 8.78291 | 3037 ft | 210 kts | 250° |
| 2026-04-16 10:57 | 50.08171 | 8.76209 | 2798 ft | 201 kts | 250° |
| 2026-04-16 10:57 | 50.07768 | 8.74176 | 2587 ft | 191 kts | 258° |
| 2026-04-16 10:58 | 50.07570 | 8.72250 | 2462 ft | 171 kts | 262° |
| 2026-04-16 10:58 | 50.07372 | 8.70498 | 2176 ft | 159 kts | 255° |
| 2026-04-16 10:58 | 50.06985 | 8.68936 | 1869 ft | 151 kts | 245° |
| 2026-04-16 10:58 | 50.06583 | 8.67475 | 1642 ft | 145 kts | 248° |
| 2026-04-16 10:59 | 50.06241 | 8.66011 | 1469 ft | 144 kts | 249° |
| 2026-04-16 10:59 | 50.05911 | 8.64538 | 1253 ft | 145 kts | 249° |
| 2026-04-16 10:59 | 50.05550 | 8.63073 | 1037 ft | 145 kts | 250° |
| 2026-04-16 10:59 | 50.05212 | 8.61593 | 825 ft | 145 kts | 249° |
| 2026-04-16 11:00 | 50.04977 | 8.60626 | 698 ft | 143 kts | 248° |
| 2026-04-16 11:00 | 50.04622 | 8.59160 | 492 ft | 145 kts | 248° |
| 2026-04-16 11:00 | 50.04279 | 8.57710 | 369 ft | 134 kts | 248° |
| 2026-04-16 11:00 | 50.04001 | 8.56562 | 357 ft | 89 kts | 249° |
| 2026-04-16 11:01 | 50.03883 | 8.56063 | 352 ft | 34 kts | 253° |
| 2026-04-16 11:01 | 50.03890 | 8.55795 | 353 ft | 24 kts | 281° |
| 2026-04-16 11:01 | 50.03909 | 8.55637 | 355 ft | 7 kts | 279° |
| 2026-04-16 11:01 | 50.03916 | 8.55575 | 348 ft | 5 kts | 279° |
| 2026-04-16 11:02 | 50.03920 | 8.55536 | 349 ft | 2 kts | 279° |
| 2026-04-16 11:02 | 50.03921 | 8.55526 | 351 ft | 1 kts | 279° |
| 2026-04-16 11:02 | 50.03926 | 8.55500 | 355 ft | 2 kts | 299° |
| 2026-04-16 11:02 | 50.03948 | 8.55481 | 354 ft | 8 kts | 338° |
| 2026-04-16 11:03 | 50.04010 | 8.55442 | 352 ft | 9 kts | 339° |
| 2026-04-16 11:03 | 50.04060 | 8.55412 | 354 ft | 7 kts | 339° |
| 2026-04-16 11:03 | 50.04125 | 8.55458 | 351 ft | 7 kts | 63° |
| 2026-04-16 11:04 | 50.04112 | 8.55505 | 351 ft | 5 kts | 152° |
| 2026-04-16 11:04 | 50.04064 | 8.55533 | 357 ft | 6 kts | 160° |
| 2026-04-16 11:04 | 50.04044 | 8.55544 | 355 ft | 1 kts | 160° |
| 2026-04-16 11:04 | 50.04041 | 8.55545 | 354 ft | 0 kts | 160° |
| 2026-04-16 11:08 | 50.04041 | 8.55546 | 354 ft | 0 kts | 160° |